Time;durP1;ratioP1;P1;durP2;ratioP2;P2;SDS_P1;SDS_P2;PMS_P1;PMS_P2;Temp;Humidity;BMP_temperature;BMP_pressure;BME280_temperature;BME280_humidity;BME280_pressure;Samples;Min_cycle;Max_cycle;Signal;HPM_P1;HPM_P2
2021/05/12 00:00:25;;;;;;;15.70;11.20;;;;;;;15.73;60.18;98087.79;124755;1096;64339;-79
2021/05/12 00:03:10;;;;;;;14.50;11.20;;;;;;;15.66;60.34;98084.01;124763;1096;64352;-79
2021/05/12 00:05:38;;;;;;;15.97;10.17;;;;;;;15.66;60.60;98084.01;124723;1097;64405;-79
2021/05/12 00:08:05;;;;;;;15.77;10.87;;;;;;;15.62;60.71;98079.97;124913;1101;64486;-79
2021/05/12 00:10:33;;;;;;;16.40;10.40;;;;;;;15.61;61.17;98077.42;124793;1096;64364;-79
2021/05/12 00:13:00;;;;;;;14.70;11.33;;;;;;;15.64;60.92;98080.66;124807;1101;64336;-79
2021/05/12 00:15:27;;;;;;;14.87;10.67;;;;;;;15.62;60.79;98079.13;124791;1101;64307;-79
2021/05/12 00:17:55;;;;;;;17.00;11.50;;;;;;;15.57;61.16;98074.22;124778;1101;64333;-79
2021/05/12 00:20:28;;;;;;;15.33;10.93;;;;;;;15.53;61.10;98079.08;124758;1101;64921;-79
2021/05/12 00:25:23;;;;;;;12.03;9.63;;;;;;;15.43;61.25;98072.95;124738;1101;64333;-79
2021/05/12 00:27:51;;;;;;;15.63;9.73;;;;;;;15.43;61.03;98078.33;124743;1096;64297;-79
2021/05/12 00:30:21;;;;;;;15.15;10.05;;;;;;;15.40;61.21;98070.55;124738;1096;64936;-79
2021/05/12 00:32:49;;;;;;;15.93;10.33;;;;;;;15.36;61.01;98075.41;124772;1101;64390;-79
2021/05/12 00:35:18;;;;;;;14.53;10.03;;;;;;;15.32;61.41;98078.55;124767;1097;64349;-79
2021/05/12 00:37:45;;;;;;;16.30;9.70;;;;;;;15.27;61.65;98073.66;124722;1101;64343;-79
2021/05/12 00:40:14;;;;;;;13.55;10.35;;;;;;;15.25;61.56;98064.08;124784;1096;64358;-79
2021/05/12 00:42:42;;;;;;;14.23;10.17;;;;;;;15.23;61.87;98063.39;124763;1097;64330;-79
2021/05/12 00:45:13;;;;;;;17.30;11.73;;;;;;;15.24;62.12;98070.42;124732;1097;64362;-79
2021/05/12 00:47:41;;;;;;;13.67;10.73;;;;;;;15.24;62.35;98063.21;124776;1101;64339;-79
2021/05/12 00:50:10;;;;;;;16.70;11.37;;;;;;;15.23;62.12;98060.70;124552;1104;64249;-78
2021/05/12 00:52:37;;;;;;;19.23;12.23;;;;;;;15.21;62.32;98060.00;124490;1104;64282;-78
2021/05/12 00:55:05;;;;;;;17.90;12.40;;;;;;;15.17;62.15;98054.11;124501;1102;64380;-78
2021/05/12 00:57:34;;;;;;;15.00;10.50;;;;;;;15.12;62.28;98059.94;124551;1097;64548;-78
2021/05/12 01:00:06;;;;;;;15.65;10.90;;;;;;;15.09;62.85;98052.20;124524;1104;64337;-78
2021/05/12 01:02:33;;;;;;;14.73;11.00;;;;;;;15.06;62.90;98048.97;124747;1101;64252;-78
2021/05/12 01:05:01;;;;;;;14.65;11.10;;;;;;;15.01;62.83;98046.77;124746;1096;64333;-78
2021/05/12 01:07:28;;;;;;;12.70;10.57;;;;;;;14.95;62.67;98054.58;124783;1097;64335;-79
2021/05/12 01:09:56;;;;;;;13.20;10.65;;;;;;;14.85;63.00;98044.78;124862;1101;64506;-79
2021/05/12 01:12:23;;;;;;;15.80;12.17;;;;;;;14.79;62.98;98060.63;124556;1104;64402;-78
2021/05/12 01:14:50;;;;;;;14.00;11.43;;;;;;;14.64;63.02;98053.11;124790;1101;64303;-78
2021/05/12 01:17:17;;;;;;;13.30;11.20;;;;;;;14.53;63.23;98039.06;124749;1101;64351;-78
2021/05/12 01:19:45;;;;;;;16.90;11.10;;;;;;;14.43;63.46;98047.16;124739;1097;64519;-78
2021/05/12 01:22:12;;;;;;;17.10;11.07;;;;;;;14.34;63.83;98032.80;124730;1097;64306;-78
2021/05/12 01:24:39;;;;;;;12.40;10.35;;;;;;;14.34;64.03;98040.84;124814;1097;64359;-78
2021/05/12 01:27:08;;;;;;;16.43;11.00;;;;;;;14.30;63.79;98050.19;124856;1101;64266;-79
2021/05/12 01:29:36;;;;;;;15.33;11.33;;;;;;;14.22;64.09;98039.38;124759;1096;64329;-79
2021/05/12 01:32:06;;;;;;;15.93;11.30;;;;;;;14.19;64.25;98043.19;124805;1097;64352;-79
2021/05/12 01:34:33;;;;;;;12.93;11.10;;;;;;;14.14;64.66;98031.20;124754;1101;64377;-79
2021/05/12 01:37:00;;;;;;;13.80;10.63;;;;;;;14.09;64.59;98033.52;124735;1097;64426;-79
2021/05/12 01:39:28;;;;;;;15.00;11.37;;;;;;;14.09;64.66;98038.88;124828;1096;64238;-80
2021/05/12 01:41:55;;;;;;;14.40;11.63;;;;;;;14.06;64.72;98053.41;124844;1097;64335;-79
2021/05/12 01:44:22;;;;;;;12.73;10.27;;;;;;;14.03;65.10;98033.12;124745;1097;64441;-81
2021/05/12 01:46:50;;;;;;;15.37;10.93;;;;;;;14.09;65.61;98022.80;124735;1101;64553;-80
2021/05/12 01:49:17;;;;;;;11.65;9.90;;;;;;;14.14;65.25;98039.25;124753;1096;64374;-80
2021/05/12 01:51:45;;;;;;;14.53;11.10;;;;;;;14.12;65.13;98027.86;124769;1096;64364;-80
2021/05/12 01:54:13;;;;;;;13.07;10.47;;;;;;;14.16;65.29;98030.06;124617;1104;64344;-80
2021/05/12 01:56:42;;;;;;;13.97;11.60;;;;;;;14.16;65.23;98040.78;124778;1101;64394;-78
2021/05/12 01:59:10;;;;;;;17.47;11.33;;;;;;;14.10;65.18;98022.63;124803;1097;64262;-78
2021/05/12 02:01:38;;;;;;;13.00;11.30;;;;;;;14.09;65.19;98031.67;124756;1097;64315;-79
2021/05/12 02:04:08;;;;;;;17.60;11.23;;;;;;;14.06;65.32;98029.30;124770;1101;64343;-78
2021/05/12 02:06:36;;;;;;;17.13;12.15;;;;;;;14.01;65.31;98032.41;124803;1101;64330;-79
2021/05/12 02:09:09;;;;;;;14.13;10.50;;;;;;;13.98;65.40;98032.72;124819;1096;64349;-79
2021/05/12 02:11:39;;;;;;;12.63;10.53;;;;;;;13.94;65.54;98022.44;124619;1101;64422;-79
2021/05/12 02:14:07;;;;;;;12.80;9.60;;;;;;;13.92;65.59;98017.22;124787;1101;64357;-79
2021/05/12 02:16:36;;;;;;;11.73;10.23;;;;;;;13.89;65.53;98019.36;124768;1097;64361;-79
2021/05/12 02:19:05;;;;;;;10.60;9.50;;;;;;;13.83;65.52;98018.95;124762;1101;64429;-79
2021/05/12 02:21:32;;;;;;;11.70;10.00;;;;;;;13.80;65.51;98016.58;124768;1101;64335;-79
2021/05/12 02:24:01;;;;;;;13.05;9.00;;;;;;;13.80;65.66;98015.73;124788;1101;64463;-79
2021/05/12 02:26:29;;;;;;;13.05;10.40;;;;;;;13.80;65.63;98013.89;124750;1101;64397;-79
2021/05/12 02:28:57;;;;;;;13.77;9.50;;;;;;;13.83;65.68;98015.44;124762;1096;64362;-79
2021/05/12 02:31:25;;;;;;;11.77;9.67;;;;;;;13.83;65.80;98018.11;124858;1101;64371;-79
2021/05/12 02:33:52;;;;;;;12.13;8.80;;;;;;;13.83;65.99;98007.41;124841;1097;64335;-79
2021/05/12 02:36:20;;;;;;;12.40;9.63;;;;;;;13.84;65.95;98015.27;124734;1097;64460;-79
2021/05/12 02:38:47;;;;;;;11.97;9.07;;;;;;;13.84;65.82;98006.40;124739;1101;64249;-79
2021/05/12 02:41:14;;;;;;;11.53;9.23;;;;;;;13.83;65.99;98002.05;124746;1101;64329;-79
2021/05/12 02:43:42;;;;;;;13.43;10.00;;;;;;;13.86;66.20;97992.88;124755;1096;64329;-78
2021/05/12 02:46:09;;;;;;;13.87;9.77;;;;;;;13.88;66.35;97994.41;124736;1096;64253;-79
2021/05/12 02:48:36;;;;;;;15.60;10.47;;;;;;;13.89;66.41;97987.22;124487;1104;64456;-78
2021/05/12 02:51:03;;;;;;;15.17;12.67;;;;;;;13.88;66.13;97993.58;124746;1101;64262;-79
2021/05/12 02:53:31;;;;;;;17.23;12.90;;;;;;;13.84;66.31;97996.52;124491;1096;64342;-79
2021/05/12 02:55:58;;;;;;;14.73;11.00;;;;;;;13.81;66.34;97994.14;124788;1101;64336;-78
2021/05/12 02:58:25;;;;;;;11.43;9.77;;;;;;;13.79;66.34;97992.61;124444;1104;64361;-79
2021/05/12 03:00:53;;;;;;;12.67;9.13;;;;;;;13.77;66.43;97992.77;124752;1097;64338;-79
2021/05/12 03:03:20;;;;;;;10.90;8.90;;;;;;;13.79;66.56;97993.44;124510;1096;64921;-79
2021/05/12 03:05:47;;;;;;;11.70;10.43;;;;;;;13.78;66.66;97986.41;124834;1096;64432;-78
2021/05/12 03:08:15;;;;;;;15.33;10.33;;;;;;;13.78;66.67;97985.58;124712;1101;64333;-78
2021/05/12 03:10:43;;;;;;;17.73;11.93;;;;;;;13.78;66.57;97991.77;124817;1097;64358;-79
2021/05/12 03:13:10;;;;;;;13.67;10.43;;;;;;;13.77;66.71;97991.91;124676;1104;64435;-78
2021/05/12 03:15:38;;;;;;;12.53;10.87;;;;;;;13.76;66.81;97985.71;124656;1101;64256;-78
2021/05/12 03:18:06;;;;;;;15.83;10.67;;;;;;;13.76;66.74;97990.23;124844;1096;64259;-78
2021/05/12 03:20:35;;;;;;;11.70;10.47;;;;;;;13.75;66.81;97985.88;124871;1101;64281;-78
2021/05/12 03:23:03;;;;;;;12.30;9.90;;;;;;;13.76;67.09;97990.23;124720;1101;64483;-78
2021/05/12 03:25:30;;;;;;;15.60;10.83;;;;;;;13.80;66.76;97988.95;124749;1101;64351;-78
2021/05/12 03:27:58;;;;;;;13.37;11.60;;;;;;;14.12;66.45;97987.66;124723;1096;64327;-79
2021/05/12 03:30:29;;;;;;;12.67;10.03;;;;;;;14.91;65.70;97995.03;124747;1097;64348;-78
2021/05/12 03:32:57;;;;;;;12.00;10.13;;;;;;;15.68;64.37;97984.48;124794;1096;64403;-77
2021/05/12 03:35:26;;;;;;;13.50;9.47;;;;;;;16.34;63.27;97986.45;124492;1101;64317;-77
2021/05/12 03:37:56;;;;;;;12.07;9.67;;;;;;;16.99;62.12;97984.91;124796;1097;64463;-78
2021/05/12 03:40:25;;;;;;;15.60;9.47;;;;;;;17.61;60.90;97978.92;124821;1101;64338;-78
2021/05/12 03:42:53;;;;;;;12.57;10.07;;;;;;;18.13;59.84;97978.45;124743;1096;64339;-77
2021/05/12 03:45:20;;;;;;;10.57;9.50;;;;;;;18.56;59.11;97973.48;124882;1101;64805;-78
2021/05/12 03:47:49;;;;;;;11.43;9.10;;;;;;;19.08;57.91;97973.63;124864;1097;64429;-78
2021/05/12 03:50:17;;;;;;;11.10;8.77;;;;;;;19.61;56.82;97972.80;124845;1101;64476;-78
2021/05/12 03:52:45;;;;;;;9.75;8.80;;;;;;;20.00;55.37;97961.73;124834;1096;64374;-78
2021/05/12 03:55:13;;;;;;;11.83;8.90;;;;;;;20.31;54.45;97966.08;124847;1097;64320;-77
2021/05/12 03:57:42;;;;;;;9.63;8.50;;;;;;;20.70;54.00;97960.30;124655;1096;64394;-77
2021/05/12 04:00:10;;;;;;;10.23;8.07;;;;;;;21.09;52.68;97959.00;124644;1102;64434;-79
2021/05/12 04:02:38;;;;;;;11.67;8.33;;;;;;;21.28;51.74;97945.81;124774;1096;64397;-77
2021/05/12 04:05:06;;;;;;;12.27;8.37;;;;;;;21.62;50.88;97954.01;124546;1096;64342;-78
2021/05/12 04:07:34;;;;;;;13.43;8.20;;;;;;;21.94;50.27;97948.14;124834;1097;64475;-77
2021/05/12 04:10:02;;;;;;;9.10;8.17;;;;;;;22.30;49.72;97953.32;124706;1096;64286;-79
2021/05/12 04:12:29;;;;;;;10.97;8.93;;;;;;;22.68;49.08;97942.80;124600;1096;64412;-77
2021/05/12 04:14:56;;;;;;;11.93;8.80;;;;;;;22.95;47.80;97951.81;124631;1104;64603;-78
2021/05/12 04:17:25;;;;;;;9.77;7.57;;;;;;;23.18;47.05;97953.33;124776;1101;64278;-78
2021/05/12 04:19:54;;;;;;;10.60;8.30;;;;;;;23.34;46.27;97950.19;124796;1096;64431;-78
2021/05/12 04:22:21;;;;;;;8.65;7.75;;;;;;;23.49;45.74;97947.26;124730;1097;64320;-78
2021/05/12 04:24:49;;;;;;;9.80;8.85;;;;;;;23.51;45.66;97949.75;124803;1101;64374;-78
2021/05/12 04:27:17;;;;;;;10.03;8.67;;;;;;;23.54;45.27;97950.18;124727;1101;64611;-78
2021/05/12 04:29:46;;;;;;;11.90;9.03;;;;;;;23.65;44.11;97951.42;124727;1097;64303;-78
2021/05/12 04:32:13;;;;;;;9.25;8.45;;;;;;;23.77;44.09;97941.56;124583;1097;64413;-77
2021/05/12 04:34:41;;;;;;;9.70;8.17;;;;;;;23.65;43.93;97949.53;124541;1097;64342;-78
2021/05/12 04:37:08;;;;;;;13.93;8.67;;;;;;;23.71;42.92;97955.17;124719;1101;64425;-77
2021/05/12 04:39:35;;;;;;;12.75;8.00;;;;;;;23.83;43.36;97948.06;124505;1096;64472;-79
2021/05/12 04:42:02;;;;;;;13.30;8.80;;;;;;;24.00;42.99;97940.26;124580;1096;64342;-80
2021/05/12 04:44:30;;;;;;;10.53;9.30;;;;;;;24.15;42.28;97945.45;124864;1101;64405;-78
2021/05/12 04:46:57;;;;;;;11.80;8.05;;;;;;;24.27;42.20;97933.64;124868;1101;64403;-79
2021/05/12 04:49:25;;;;;;;10.97;8.40;;;;;;;24.44;42.19;97935.89;124815;1101;64486;-79
2021/05/12 04:51:52;;;;;;;10.43;7.50;;;;;;;24.48;41.73;97927.08;124831;1097;64353;-77
2021/05/12 04:54:19;;;;;;;8.63;7.80;;;;;;;24.68;41.79;97931.59;124793;1096;64346;-80
2021/05/12 04:56:47;;;;;;;11.27;7.87;;;;;;;24.96;40.89;97936.62;124778;1101;64345;-79
2021/05/12 04:59:14;;;;;;;8.60;7.60;;;;;;;25.03;40.82;97926.51;124748;1102;64326;-79
2021/05/12 05:01:42;;;;;;;9.55;8.55;;;;;;;25.12;40.90;97933.38;124763;1096;64333;-81
2021/05/12 05:04:09;;;;;;;10.53;8.97;;;;;;;25.31;40.74;97933.46;124585;1096;64481;-80
2021/05/12 05:06:36;;;;;;;10.95;7.65;;;;;;;25.55;40.63;97927.14;124744;1101;64342;-77
2021/05/12 05:09:06;;;;;;;11.75;8.35;;;;;;;25.71;40.19;97936.63;124740;1101;64348;-79
2021/05/12 05:11:34;;;;;;;10.77;8.53;;;;;;;25.93;40.09;97933.48;124802;1097;64422;-78
2021/05/12 05:14:02;;;;;;;9.40;8.40;;;;;;;26.13;39.58;97936.83;124509;1096;64402;-78
2021/05/12 05:16:29;;;;;;;10.87;7.97;;;;;;;26.28;39.05;97928.25;124769;1101;64327;-78
2021/05/12 05:18:57;;;;;;;9.75;8.15;;;;;;;26.21;39.08;97938.41;124711;1101;64303;-78
2021/05/12 05:21:24;;;;;;;8.47;7.47;;;;;;;26.36;38.81;97932.56;124519;1101;64222;-78
2021/05/12 05:23:54;;;;;;;8.50;6.80;;;;;;;26.47;38.76;97939.97;124802;1097;64275;-78
2021/05/12 05:26:21;;;;;;;11.20;7.40;;;;;;;26.64;38.35;97940.17;124868;1101;64339;-78
2021/05/12 05:28:50;;;;;;;9.20;7.67;;;;;;;26.75;38.11;97941.28;124582;1102;64814;-79
2021/05/12 05:31:18;;;;;;;9.05;6.95;;;;;;;26.67;38.11;97936.98;124773;1097;64495;-79
2021/05/12 05:33:45;;;;;;;11.33;7.63;;;;;;;26.71;38.12;97935.46;124722;1101;64278;-79
2021/05/12 05:36:12;;;;;;;10.77;7.63;;;;;;;26.82;37.81;97940.13;124750;1096;64330;-79
2021/05/12 05:38:39;;;;;;;9.70;7.00;;;;;;;26.91;37.88;97929.70;124756;1101;64509;-79
2021/05/12 05:41:07;;;;;;;10.60;7.10;;;;;;;27.01;37.14;97932.67;124490;1104;64402;-79
2021/05/12 05:43:34;;;;;;;11.47;7.00;;;;;;;27.05;36.96;97936.63;124777;1101;64342;-79
2021/05/12 05:46:01;;;;;;;8.45;7.50;;;;;;;27.11;37.10;97934.84;124773;1097;64306;-79
2021/05/12 05:48:28;;;;;;;11.73;7.00;;;;;;;27.14;36.46;97934.38;124605;1101;64356;-79
2021/05/12 05:50:57;;;;;;;7.87;7.00;;;;;;;27.15;36.83;97938.79;124711;1097;64331;-78
2021/05/12 05:53:24;;;;;;;8.33;7.13;;;;;;;27.24;36.36;97934.66;124805;1101;64492;-78
2021/05/12 05:55:51;;;;;;;7.80;5.93;;;;;;;27.35;36.43;97938.47;124753;1097;64355;-78
2021/05/12 05:58:19;;;;;;;12.70;6.50;;;;;;;27.44;36.33;97930.77;124827;1097;64333;-79
2021/05/12 06:00:47;;;;;;;6.97;6.33;;;;;;;27.47;36.59;97930.29;124742;1096;64226;-79
2021/05/12 06:03:14;;;;;;;8.60;7.03;;;;;;;27.48;36.21;97934.68;124780;1101;64364;-79
2021/05/12 06:05:46;;;;;;;8.83;7.10;;;;;;;27.62;36.62;97929.80;124507;1102;64355;-78
2021/05/12 06:08:14;;;;;;;7.50;6.73;;;;;;;27.62;36.18;97935.27;124548;1096;64333;-79
2021/05/12 06:10:42;;;;;;;9.53;7.37;;;;;;;27.52;36.13;97931.23;124765;1097;64281;-79
2021/05/12 06:13:09;;;;;;;10.43;7.20;;;;;;;27.45;35.49;97933.25;124541;1096;64339;-79
2021/05/12 06:15:39;;;;;;;10.50;6.80;;;;;;;27.35;36.05;97931.09;124791;1096;64307;-78
2021/05/12 06:18:07;;;;;;;10.10;6.90;;;;;;;27.30;35.88;97930.14;124603;1102;64471;-79
2021/05/12 06:20:35;;;;;;;8.77;7.60;;;;;;;27.17;35.75;97933.92;124486;1096;64346;-79
2021/05/12 06:23:04;;;;;;;10.15;6.55;;;;;;;27.15;36.50;97941.53;124497;1097;64393;-78
2021/05/12 06:25:31;;;;;;;8.47;7.57;;;;;;;27.14;36.05;97929.73;124850;1101;64719;-78
2021/05/12 06:27:59;;;;;;;8.87;8.00;;;;;;;27.22;36.34;97933.23;124732;1097;64358;-79
2021/05/12 06:30:26;;;;;;;11.20;7.70;;;;;;;27.02;35.52;97930.80;124758;1101;64279;-79
2021/05/12 06:32:54;;;;;;;7.70;6.97;;;;;;;26.78;36.07;97927.14;124454;1096;64342;-78
2021/05/12 06:35:22;;;;;;;10.87;6.97;;;;;;;26.68;36.31;97930.47;124738;1101;64473;-78
2021/05/12 06:37:49;;;;;;;8.07;7.10;;;;;;;26.49;35.94;97922.28;124818;1096;64368;-79
2021/05/12 06:40:17;;;;;;;12.83;7.03;;;;;;;26.27;36.64;97923.83;124744;1101;64365;-79
2021/05/12 06:42:44;;;;;;;9.27;6.83;;;;;;;26.22;36.72;97927.23;124774;1096;64303;-79
2021/05/12 06:45:13;;;;;;;8.73;7.17;;;;;;;26.21;36.64;97925.59;124462;1096;64306;-79
2021/05/12 06:47:42;;;;;;;8.00;6.50;;;;;;;26.04;36.79;97925.39;124845;1096;64323;-79
2021/05/12 06:50:09;;;;;;;9.40;6.97;;;;;;;25.99;36.59;97918.94;124739;1097;64275;-79
2021/05/12 06:52:37;;;;;;;10.43;6.70;;;;;;;25.94;36.77;97921.52;124832;1096;64394;-78
2021/05/12 06:55:05;;;;;;;8.43;5.87;;;;;;;25.92;37.21;97910.81;124578;1102;64365;-78
2021/05/12 06:57:33;;;;;;;12.47;6.80;;;;;;;25.90;37.09;97910.20;124838;1101;64406;-78
2021/05/12 07:00:00;;;;;;;14.07;7.23;;;;;;;25.89;37.20;97911.28;124855;1096;64337;-79
2021/05/12 07:02:28;;;;;;;9.23;6.23;;;;;;;25.94;37.49;97914.16;124823;1097;64243;-78
2021/05/12 07:04:55;;;;;;;9.13;7.63;;;;;;;25.92;37.25;97918.18;124716;1101;64243;-78
2021/05/12 07:07:23;;;;;;;8.73;6.37;;;;;;;25.74;37.60;97916.24;124741;1097;64361;-78
2021/05/12 07:09:50;;;;;;;8.97;6.30;;;;;;;25.39;37.58;97908.63;124517;1097;64339;-79
2021/05/12 07:12:18;;;;;;;10.23;6.30;;;;;;;24.93;37.91;97912.53;124799;1096;64333;-78
2021/05/12 07:14:45;;;;;;;8.57;6.13;;;;;;;24.53;38.36;97912.81;124792;1101;64339;-78
2021/05/12 07:17:12;;;;;;;7.47;6.27;;;;;;;24.30;39.11;97913.31;124721;1101;64459;-79
2021/05/12 07:19:39;;;;;;;12.13;7.50;;;;;;;24.08;39.25;97908.19;124487;1104;64361;-79
2021/05/12 07:22:07;;;;;;;9.53;6.23;;;;;;;23.96;39.69;97904.48;124465;1104;64341;-79
2021/05/12 07:24:35;;;;;;;7.30;6.60;;;;;;;23.83;40.14;97901.81;124764;1101;64332;-79
2021/05/12 07:27:02;;;;;;;11.70;7.07;;;;;;;23.73;40.23;97904.14;124500;1096;64376;-79
2021/05/12 07:29:29;;;;;;;9.97;6.40;;;;;;;23.70;40.47;97909.95;124800;1101;64374;-79
2021/05/12 07:31:56;;;;;;;9.00;6.03;;;;;;;23.71;40.46;97901.59;124530;1096;64255;-78
2021/05/12 07:34:24;;;;;;;8.97;6.07;;;;;;;23.73;40.42;97904.97;124528;1101;64406;-79
2021/05/12 07:36:51;;;;;;;8.57;5.57;;;;;;;23.82;40.51;97905.56;124668;1097;64278;-79
2021/05/12 07:39:19;;;;;;;11.30;5.30;;;;;;;23.93;41.24;97902.17;124843;1101;64336;-80
2021/05/12 07:41:47;;;;;;;8.60;5.60;;;;;;;24.10;40.75;97897.92;124790;1097;64371;-79
2021/05/12 07:44:15;;;;;;;10.68;6.20;;;;;;;24.21;40.97;97895.57;124519;1097;64424;-79
2021/05/12 07:46:44;;;;;;;9.57;5.80;;;;;;;24.23;40.80;97897.03;124733;1101;64358;-80
2021/05/12 07:49:12;;;;;;;8.60;5.90;;;;;;;24.32;41.01;97894.88;124824;1101;64326;-80
2021/05/12 07:51:39;;;;;;;9.70;6.00;;;;;;;24.45;41.34;97883.94;124750;1101;64342;-80
2021/05/12 07:54:06;;;;;;;8.27;5.67;;;;;;;24.55;40.84;97888.09;124738;1101;64262;-81
2021/05/12 07:56:34;;;;;;;6.70;6.00;;;;;;;24.51;40.62;97893.12;124540;1096;64451;-79
2021/05/12 07:59:01;;;;;;;6.80;5.30;;;;;;;24.61;40.67;97889.92;124494;1097;64336;-78
2021/05/12 08:01:32;;;;;;;8.70;4.70;;;;;;;24.68;39.97;97885.27;124773;1101;64367;-80
2021/05/12 08:03:59;;;;;;;9.40;5.53;;;;;;;24.66;39.59;97881.92;124760;1097;64349;-79
2021/05/12 08:06:26;;;;;;;6.97;5.33;;;;;;;24.63;39.44;97883.20;124541;1104;64417;-78
2021/05/12 08:08:55;;;;;;;10.47;5.50;;;;;;;24.65;39.31;97874.82;124798;1096;64380;-79
2021/05/12 08:11:22;;;;;;;8.40;5.10;;;;;;;24.69;39.69;97879.58;124723;1101;64278;-79
2021/05/12 08:13:50;;;;;;;7.47;4.50;;;;;;;24.80;40.21;97872.59;124780;1096;64336;-79
2021/05/12 08:16:17;;;;;;;7.53;5.17;;;;;;;24.95;40.13;97874.99;124797;1101;64326;-78
2021/05/12 08:18:45;;;;;;;7.13;5.60;;;;;;;25.07;39.99;97864.22;124720;1101;64292;-77
2021/05/12 08:21:12;;;;;;;7.20;5.20;;;;;;;25.22;39.88;97866.61;124622;1096;64335;-78
2021/05/12 08:23:40;;;;;;;8.30;4.97;;;;;;;25.33;39.79;97863.13;124798;1101;64385;-78
2021/05/12 08:26:09;;;;;;;6.73;5.37;;;;;;;25.34;38.72;97865.65;124738;1097;64391;-79
2021/05/12 08:28:41;;;;;;;10.38;4.55;;;;;;;25.36;39.42;97860.81;124786;1097;64307;-79
2021/05/12 08:31:08;;;;;;;6.20;4.13;;;;;;;25.50;39.39;97861.50;124742;1101;64374;-78
2021/05/12 08:34:12;;;;;;;7.77;4.00;;;;;;;25.63;38.39;97855.89;124827;1101;64409;-90
2021/05/12 08:36:39;;;;;;;5.17;3.70;;;;;;;25.69;37.40;97856.05;124981;1097;64249;-83
2021/05/12 08:39:27;;;;;;;3.73;3.33;;;;;;;25.65;36.61;97850.22;125125;1101;64326;-93
2021/05/12 08:42:34;;;;;;;5.00;3.47;;;;;;;25.61;36.60;97854.45;125091;1101;64330;-94
2021/05/12 08:45:02;;;;;;;5.47;3.33;;;;;;;25.65;36.33;97844.77;125490;1096;64377;-88
2021/05/12 08:47:29;;;;;;;5.10;3.23;;;;;;;25.76;36.23;97843.16;124930;1101;64480;-91
2021/05/12 08:49:59;;;;;;;3.80;3.43;;;;;;;25.87;36.88;97841.59;125140;1096;64310;-89
2021/05/12 08:52:28;;;;;;;4.37;2.87;;;;;;;26.03;36.05;97838.23;125211;1096;64374;-84
2021/05/12 08:54:56;;;;;;;5.00;3.35;;;;;;;26.18;36.07;97830.46;125093;1096;64329;-90
2021/05/12 08:57:23;;;;;;;5.30;2.95;;;;;;;26.35;35.58;97835.27;125147;1101;64437;-88
2021/05/12 08:59:54;;;;;;;4.77;2.87;;;;;;;26.53;35.88;97829.77;124690;1102;64357;-84
2021/05/12 09:02:22;;;;;;;6.10;2.80;;;;;;;26.69;35.58;97836.45;124589;1101;64278;-85
2021/05/12 09:04:49;;;;;;;4.87;2.87;;;;;;;26.77;35.00;97827.91;124989;1101;64247;-83
2021/05/12 09:07:16;;;;;;;4.80;3.50;;;;;;;26.81;34.70;97826.38;124582;1096;64252;-84
2021/05/12 09:09:44;;;;;;;5.40;2.70;;;;;;;26.81;33.24;97828.30;124608;1104;64763;-83
2021/05/12 09:12:14;;;;;;;4.30;2.50;;;;;;;26.81;34.07;97822.83;124607;1096;64415;-86
2021/05/12 09:14:41;;;;;;;5.00;2.80;;;;;;;26.88;33.64;97813.44;124582;1096;64342;-85
2021/05/12 09:17:09;;;;;;;5.33;2.87;;;;;;;26.99;33.54;97809.05;124531;1096;64363;-84
2021/05/12 09:19:37;;;;;;;5.85;2.20;;;;;;;27.04;32.89;97811.91;124530;1096;64406;-81
2021/05/12 09:22:05;;;;;;;3.73;2.80;;;;;;;27.01;33.01;97809.63;124523;1096;64336;-83
2021/05/12 09:24:37;;;;;;;5.20;2.40;;;;;;;27.09;33.74;97805.70;124546;1096;64255;-82
2021/05/12 09:27:16;;;;;;;3.23;2.90;;;;;;;27.20;33.71;97802.19;124778;1096;64351;-83
2021/05/12 09:29:45;;;;;;;3.45;2.83;;;;;;;27.30;33.36;97796.91;124732;1104;64301;-82
2021/05/12 09:32:17;;;;;;;5.77;3.23;;;;;;;27.37;32.55;97791.33;124698;1096;64307;-80
2021/05/12 09:35:02;;;;;;;3.70;3.20;;;;;;;27.42;32.17;97796.09;124723;1104;64434;-80
2021/05/12 09:37:35;;;;;;;5.20;3.63;;;;;;;27.47;32.39;97796.20;124652;1096;64256;-81
2021/05/12 09:40:09;;;;;;;5.50;2.30;;;;;;;27.47;31.74;97797.02;124596;1104;64307;-81
2021/05/12 09:42:39;;;;;;;3.03;2.60;;;;;;;27.50;31.91;97787.50;124528;1096;64299;-83
2021/05/12 09:45:14;;;;;;;4.80;2.40;;;;;;;27.60;31.99;97784.98;124586;1104;64339;-82
2021/05/12 09:47:46;;;;;;;3.17;2.23;;;;;;;27.60;30.73;97784.98;124503;1104;64422;-81
2021/05/12 09:50:27;;;;;;;4.20;2.25;;;;;;;27.55;30.19;97795.82;124556;1096;64329;-83
2021/05/12 09:52:57;;;;;;;2.23;1.60;;;;;;;27.42;29.89;97790.61;124573;1104;64312;-83
2021/05/12 09:55:40;;;;;;;3.50;1.70;;;;;;;27.35;29.35;97790.73;124546;1104;64329;-82
2021/05/12 09:58:12;;;;;;;3.80;2.67;;;;;;;27.38;29.80;97782.03;124541;1104;64338;-81
2021/05/12 10:00:42;;;;;;;2.47;1.90;;;;;;;27.47;30.18;97786.08;124546;1104;64441;-83
2021/05/12 10:03:11;;;;;;;2.40;1.90;;;;;;;27.60;30.06;97784.16;124571;1096;64399;-81
2021/05/12 10:06:00;;;;;;;2.83;2.05;;;;;;;27.72;30.05;97783.02;124584;1096;64332;-80
2021/05/12 10:08:30;;;;;;;;;;;;;;;27.83;30.04;97783.27;124617;1104;64798;-81
2021/05/12 10:11:01;;;;;;;3.60;2.08;;;;;;;27.84;29.95;97780.30;124598;1104;64457;-80
2021/05/12 10:13:31;;;;;;;5.80;2.13;;;;;;;27.90;29.60;97779.31;124546;1104;64390;-81
2021/05/12 10:15:59;;;;;;;5.67;2.00;;;;;;;27.85;29.31;97772.91;124627;1104;64374;-79
2021/05/12 10:18:26;;;;;;;2.80;2.13;;;;;;;27.78;29.19;97773.86;124605;1096;64345;-80
2021/05/12 10:20:58;;;;;;;4.97;1.80;;;;;;;27.81;29.02;97771.75;124547;1104;64342;-80
2021/05/12 10:23:26;;;;;;;3.63;2.50;;;;;;;27.81;28.97;97774.48;124527;1104;64375;-80
2021/05/12 10:25:56;;;;;;;3.50;1.97;;;;;;;27.79;29.20;97775.51;124592;1096;64332;-80
2021/05/12 10:28:24;;;;;;;2.95;2.30;;;;;;;27.79;29.83;97770.03;124765;1104;64333;-81
2021/05/12 10:30:53;;;;;;;4.15;2.55;;;;;;;27.93;30.25;97767.86;124537;1104;64329;-81
2021/05/12 10:33:46;;;;;;;3.50;2.10;;;;;;;27.94;29.15;97761.33;124648;1096;64364;-81
2021/05/12 10:36:14;;;;;;;2.55;2.20;;;;;;;28.00;28.59;97760.34;124587;1104;64390;-80
2021/05/12 10:38:46;;;;;;;2.40;1.80;;;;;;;28.09;28.47;97757.20;124528;1096;64361;-81
2021/05/12 10:41:39;;;;;;;5.97;2.30;;;;;;;28.15;28.65;97748.84;124622;1104;64425;-80
2021/05/12 10:44:18;;;;;;;2.10;1.83;;;;;;;28.25;28.46;97753.65;124572;1096;64409;-82
2021/05/12 10:47:00;;;;;;;5.57;2.00;;;;;;;28.29;29.06;97754.00;124615;1096;64434;-80
2021/05/12 10:49:27;;;;;;;2.45;2.10;;;;;;;28.29;28.79;97743.05;124704;1104;64342;-81
2021/05/12 10:51:55;;;;;;;2.70;2.00;;;;;;;28.24;28.74;97743.78;124687;1096;64358;-83
2021/05/12 10:54:46;;;;;;;2.43;2.23;;;;;;;28.22;28.68;97746.75;124620;1104;64453;-81
2021/05/12 10:57:32;;;;;;;3.75;2.45;;;;;;;28.24;28.34;97744.60;124577;1096;64358;-82
2021/05/12 10:59:59;;;;;;;2.67;2.40;;;;;;;28.22;28.28;97737.71;124499;1104;64791;-80
2021/05/12 11:03:04;;;;;;;2.97;2.00;;;;;;;28.25;28.23;97748.17;124570;1104;64342;-81
2021/05/12 11:05:43;;;;;;;6.00;2.20;;;;;;;28.31;29.13;97746.38;124563;1096;64319;-81
2021/05/12 11:08:18;;;;;;;2.60;2.40;;;;;;;28.34;28.21;97738.48;124613;1096;64332;-81
2021/05/12 11:11:00;;;;;;;2.50;1.95;;;;;;;28.37;28.68;97729.76;124542;1104;64361;-80
2021/05/12 11:13:29;;;;;;;5.60;2.70;;;;;;;28.47;28.60;97733.80;124564;1104;64310;-80
2021/05/12 11:16:00;;;;;;;;;;;;;;;28.44;28.67;97729.64;124630;1104;64370;-80
2021/05/12 11:18:34;;;;;;;2.07;1.87;;;;;;;28.47;28.86;97731.05;124496;1104;64521;-81
2021/05/12 11:21:22;;;;;;;2.37;2.07;;;;;;;28.50;27.76;97734.12;124582;1096;64543;-81
2021/05/12 11:24:04;;;;;;;2.57;2.30;;;;;;;28.53;28.26;97725.39;124545;1104;64332;-80
2021/05/12 11:32:07;;;;;;;2.60;2.13;;;;;;;28.49;27.63;97723.39;124553;1104;64348;-80
2021/05/12 11:34:36;;;;;;;3.08;2.10;;;;;;;28.53;28.09;97722.65;124635;1096;64338;-80
2021/05/12 11:37:07;;;;;;;3.95;2.43;;;;;;;28.59;28.39;97712.59;124574;1096;64329;-80